Amboy, IL (61310)

5:57 PM CST on February 14, 2016 (GMT -0600)
Lee Co EMA Amboy Site | | Change Station
CLOSE
Current Station
Personal Weather Station
Location: Amboy, IL
Elevation: 765 ft
Nearby Weather Stations
Active Advisory: Winter Weather Advisory Active Notice: Local Storm Report

Elev 765 ft 41.71 °N, 89.32 °W | Updated 1 minute ago

Snow
Snow
17.8 °F
Feels Like 4 °F
N
13.0
Wind Variable Wind from ESE
Gusts 22.0 mph

Today
High -- | Low -- °F
--% Chance of Precip.
Yesterday
High -- | Low -- °F
Precip. -- in
Pressure 29.99 in
Visibility 7.0 miles
Clouds Few 1500 ft
Mostly Cloudy 3100 ft
Overcast 3700 ft
Windchill 4 °F
Dew Point 15 °F
Humidity 89%
Rainfall 0.00 in
Snow Depth Not available.
6:54 AM 5:28 PM
Waxing Crescent, 46% visible
METAR KSQI 142355Z 11010G14KT 7SM FEW015 BKN031 OVC037 M07/M11 A2999 RMK AO1 11070 21080 57007
Pressure 29.99 in
Visibility 7.0 miles
Clouds Few 1500 ft
Mostly Cloudy 3100 ft
Overcast 3700 ft
Windchill 4 °F
Dew Point 15 °F
Humidity 89%
Rainfall 0.00 in
Snow Depth Not available.
6:54 AM 5:28 PM
Waxing Crescent, 46% visible
METAR KSQI 142355Z 11010G14KT 7SM FEW015 BKN031 OVC037 M07/M11 A2999 RMK AO1 11070 21080 57007

10-Day Weather Forecast

Almanac

Astronomy

Feb. 14, 2016 Rise Set
Actual Time
Civil Twilight
Nautical Twilight
Astronomical Twilight
Moon
Length of Visible Light
Length of Day
Tomorrow will be .
, % of the Moon is Illuminated

Today's Extremes

State Highs State Lows

Community

WunderPhotos

Upload Photos

1,892,929 photos uploaded!

WunderBlog® & News

Nearby

Air Quality

  Air Quality AQ Index Pollutant
Not available.

Snow Depth

Station Depth Elevation

Earthquake Activity

City Distance Mag. Time & Date
Minimum magnitude displayed is 2.5.

Coastal Water Temperatures

Place Temperature

Stations

Nearby Weather Stations

Station Location Temp. Windchill Dew Point Humidity Wind Precip. Elev Updated Type
                   

Watches & Warnings

Winter Weather Advisory
Issued: 3:01 PM CST Feb. 14, 2016 – National Weather Service

... Winter Weather Advisory remains in effect until midnight CST
tonight...

* timing... snow will continue through this evening.

* Snow accumulation... 3 to 5 inches storm total.

* Winds... southeast 15 to 25 mph with gusts up to 30 mph.

* Main impact... snow accumulation on roads will make travel
hazardous. Blowing and drifting snow will also be possible.

Precautionary/preparedness actions...

A Winter Weather Advisory for snow means that periods of snow
will cause primarily travel difficulties. Be prepared for snow
covered roads and limited visibilities... and use caution while
driving.



Beachler